Halkirk, Canada
Current Conditions -  °F | °C
As of 8:31 AM on Friday 28 Nov 2014 (Local Time) from CYQF Reporting Station
Light Snow Light Snow  
Wind Chill: -28°   Ceiling: 3500
Heat Index: -6°   Visibility: 1.5mi
Dew Point: -11°   Wind: 16mph
Humidity: 77%   Direction: 330°NNW
Pressure: 29.71"   Gusts: NA
Location:  52.28°N, 112.15°W
Report Text: CYQF 281531Z 33014KT 1 1/2SM -SN DRSN OVC035 M21/M24 A2971 RMK SC8 SLP141
Loading
Personal Weather Stations






























Interactive Weather Map New forecast layout! Learn more

10-Day Weather Forecast

Advertisements
Track Severe Weather on mobile